VABB/BOM METAR and TAF weather

Enter ICAO airport designator
Station Type Date Time Source
VABB METAR 2019/02/20 17:00 UTC NOAA

VABB 201700Z 28004KT 3000 HZ SCT100 25/22 Q1016 NOSIG


Station Type Date Time Source
VABB Decoded METAR 2019/02/20 17:00 UTC NOAA

Bombay / Santacruz, India (VABB) 19-07N 072-51E 14M
Feb 20, 2019 - 12:00 PM EST / 2019.02.20 1700 UTC
Wind: from the W (280 degrees) at 5 MPH (4 KT):0
Visibility: 1 mile(s):0
Sky conditions: partly cloudy
Weather: haze
Temperature: 77 F (25 C)
Dew Point: 71 F (22 C)
Relative Humidity: 83%
Pressure (altimeter): 30.00 in. Hg (1016 hPa)
ob: VABB 201700Z 28004KT 3000 HZ SCT100 25/22 Q1016 NOSIG
cycle: 17

Station Type Date Time Source
VABB TAF 2019/02/20 18:52 UTC NOAA

TAF VABB 201700Z 2018/2124 VRB05KT 3000 HZ NSC
BECMG 2100/2102 2500 HZ
BECMG 2106/2108 28010KT 3000 FU
BECMG 2109/2111 4000 FU
BECMG 2115/2117 34005KT 3000 HZ
BECMG 2118/2120 VRB05KT


Example: see airport list